Arrowhead, Minnesota
Current Conditions -  °F | °C
As of 8:57 PM on Wednesday 26 Nov 2014 (Local Time) from KCOQ Reporting Station
Clear Clear  
Wind Chill: -13°   Ceiling: Unl
Heat Index:   Visibility: 10mi
Dew Point: -6°   Wind: 12mph
Humidity: 66%   Direction: 320°NW
Pressure: 30.32"   Gusts: 16mph
Location:  46.8211°N, 92.6871°W
Report Text: KCOQ 270257Z AUTO 32010G14KT 10SM CLR M16/M21 A3032 RMK AO2
Loading
Personal Weather Stations






























Interactive Weather Map New forecast layout! Learn more

10-Day Weather Forecast

Advertisements
Track Severe Weather on mobile